Time;durP1;ratioP1;P1;durP2;ratioP2;P2;SDS_P1;SDS_P2;PMS_P1;PMS_P2;Temp;Humidity;BMP_temperature;BMP_pressure;BME280_temperature;BME280_humidity;BME280_pressure;Samples;Min_cycle;Max_cycle;Signal;HPM_P1;HPM_P2
2023/01/04 00:02:06;;;;;;;67.22;50.38;;;16.20;73.00;;;;;;4905877;28;97009;-53
2023/01/04 00:04:32;;;;;;;66.57;50.35;;;16.30;73.10;;;;;;4899704;28;90705;-53
2023/01/04 00:06:58;;;;;;;66.50;50.40;;;16.20;73.10;;;;;;4904402;28;90675;-51
2023/01/04 00:09:23;;;;;;;69.28;50.90;;;16.20;73.20;;;;;;4905212;28;89744;-54
2023/01/04 00:11:49;;;;;;;66.90;50.67;;;16.20;73.10;;;;;;4913051;28;89580;-47
2023/01/04 00:14:17;;;;;;;67.32;50.75;;;16.30;73.00;;;;;;4905140;28;94357;-54
2023/01/04 00:16:43;;;;;;;66.55;50.33;;;16.20;73.10;;;;;;4910357;28;89015;-49
2023/01/04 00:19:10;;;;;;;66.85;50.47;;;16.20;73.10;;;;;;4909643;28;90007;-49
2023/01/04 00:21:36;;;;;;;69.57;50.42;;;16.20;73.20;;;;;;4910820;28;91960;-51
2023/01/04 00:24:02;;;;;;;68.03;50.08;;;16.20;73.20;;;;;;4909124;28;91362;-54
2023/01/04 00:26:33;;;;;;;66.93;50.38;;;16.20;73.20;;;;;;4907335;28;89707;-50
2023/01/04 00:29:01;;;;;;;66.60;50.10;;;16.10;73.30;;;;;;4905741;28;89599;-50
2023/01/04 00:31:27;;;;;;;66.85;50.55;;;16.20;73.30;;;;;;4912404;28;91785;-51
2023/01/04 00:33:55;;;;;;;66.47;50.33;;;16.10;73.00;;;;;;4910583;28;89796;-52
2023/01/04 00:36:21;;;;;;;65.95;50.13;;;16.10;73.10;;;;;;4904809;28;94551;-51
2023/01/04 00:38:47;;;;;;;66.70;50.15;;;16.10;73.20;;;;;;4915890;28;89644;-52
2023/01/04 00:41:12;;;;;;;66.18;49.97;;;16.10;73.30;;;;;;4907442;28;91162;-51
2023/01/04 00:43:38;;;;;;;67.35;50.13;;;16.10;73.10;;;;;;4912775;28;90194;-50
2023/01/04 00:46:06;;;;;;;65.60;49.85;;;16.10;73.30;;;;;;4900887;28;91306;-53
2023/01/04 00:48:32;;;;;;;66.53;50.20;;;16.10;73.20;;;;;;4906960;28;90928;-52
2023/01/04 00:50:59;;;;;;;65.97;50.05;;;16.10;73.30;;;;;;4905397;28;89855;-53
2023/01/04 00:53:24;;;;;;;66.18;50.05;;;16.10;73.10;;;;;;4905838;28;90095;-52
2023/01/04 00:55:50;;;;;;;66.93;50.13;;;16.10;73.30;;;;;;4903491;28;94492;-50
2023/01/04 00:58:16;;;;;;;66.63;50.03;;;16.10;73.30;;;;;;4907604;28;90169;-48
2023/01/04 01:00:41;;;;;;;66.05;49.78;;;16.10;73.30;;;;;;4908526;28;90489;-49
2023/01/04 01:03:07;;;;;;;66.13;49.75;;;16.00;73.20;;;;;;4910726;28;90035;-53
2023/01/04 01:05:34;;;;;;;66.88;50.13;;;16.00;73.10;;;;;;4906210;28;89489;-49
2023/01/04 01:08:23;;;;;;;67.97;49.78;;;16.00;73.30;;;;;;4910596;28;89915;-50
2023/01/04 01:10:45;;;;;;;66.38;49.92;;;16.00;73.50;;;;;;4913783;28;90746;-52
2023/01/04 01:13:11;;;;;;;66.15;49.38;;;16.00;73.60;;;;;;4905324;28;90829;-51
2023/01/04 01:15:37;;;;;;;65.68;50.05;;;16.00;73.60;;;;;;4899867;28;91042;-54
2023/01/04 01:18:02;;;;;;;65.55;49.55;;;16.00;73.60;;;;;;4908301;28;89551;-53
2023/01/04 01:20:28;;;;;;;65.97;49.83;;;16.00;73.70;;;;;;4907273;28;91151;-52
2023/01/04 01:22:53;;;;;;;65.88;49.67;;;16.00;73.50;;;;;;4906285;28;90819;-51
2023/01/04 01:25:19;;;;;;;66.63;50.05;;;16.00;73.60;;;;;;4908822;28;90303;-53
2023/01/04 01:27:45;;;;;;;66.28;50.00;;;15.90;73.60;;;;;;4911790;28;97630;-52
2023/01/04 01:30:11;;;;;;;66.22;49.97;;;15.90;73.60;;;;;;4905031;28;95543;-49
2023/01/04 01:32:36;;;;;;;65.28;49.92;;;15.90;73.60;;;;;;4898101;28;92822;-52
2023/01/04 01:35:02;;;;;;;65.78;50.08;;;15.90;73.70;;;;;;4916829;28;90853;-51
2023/01/04 01:37:27;;;;;;;65.57;49.85;;;15.90;73.60;;;;;;4908214;28;90955;-54
2023/01/04 01:39:53;;;;;;;65.75;50.05;;;15.90;73.80;;;;;;4913416;28;89666;-51
2023/01/04 01:42:21;;;;;;;67.80;50.00;;;15.90;73.80;;;;;;4908007;28;91179;-51
2023/01/04 01:44:53;;;;;;;66.38;49.55;;;15.90;73.80;;;;;;4905894;28;90290;-52
2023/01/04 01:47:26;;;;;;;65.85;49.78;;;15.90;74.00;;;;;;4907941;28;89956;-52
2023/01/04 01:49:53;;;;;;;66.88;49.70;;;15.80;73.60;;;;;;4908089;28;90125;-52
2023/01/04 01:52:26;;;;;;;65.13;49.47;;;15.80;73.80;;;;;;4904530;28;89924;-49
2023/01/04 01:54:58;;;;;;;66.43;49.70;;;15.80;73.80;;;;;;4895940;28;90642;-49
2023/01/04 01:57:27;;;;;;;65.43;49.90;;;15.80;73.90;;;;;;4907342;28;90154;-50
2023/01/04 01:59:57;;;;;;;65.78;49.95;;;15.80;73.90;;;;;;4910372;28;90259;-53
2023/01/04 02:02:23;;;;;;;65.85;49.60;;;15.80;73.90;;;;;;4908446;28;91182;-51
2023/01/04 02:04:50;;;;;;;65.55;49.47;;;15.80;73.90;;;;;;4903532;28;91680;-49
2023/01/04 02:07:20;;;;;;;66.35;50.03;;;15.80;73.90;;;;;;4906046;28;92811;-46
2023/01/04 02:09:48;;;;;;;67.13;49.72;;;15.80;74.00;;;;;;4921369;28;90018;-50
2023/01/04 02:12:13;;;;;;;66.18;49.75;;;15.80;73.80;;;;;;4907525;28;92251;-50
2023/01/04 02:14:42;;;;;;;66.03;49.90;;;15.80;73.90;;;;;;4913008;28;90059;-48
2023/01/04 02:17:13;;;;;;;65.35;49.33;;;15.80;74.00;;;;;;4913676;28;89771;-52
2023/01/04 02:19:42;;;;;;;65.47;49.58;;;15.80;74.00;;;;;;4912413;28;92312;-53
2023/01/04 02:22:23;;;;;;;65.55;49.83;;;15.80;74.00;;;;;;4911679;28;90716;-53
2023/01/04 02:25:16;;;;;;;64.83;49.60;;;15.80;74.20;;;;;;4901933;28;91360;-52
2023/01/04 02:27:50;;;;;;;65.35;49.85;;;15.80;74.00;;;;;;4910829;28;91999;-47
2023/01/04 02:30:50;;;;;;;65.15;49.78;;;15.80;73.90;;;;;;4914931;28;89980;-52
2023/01/04 02:33:21;;;;;;;67.30;49.67;;;15.80;74.00;;;;;;4906914;28;92923;-49
2023/01/04 02:36:24;;;;;;;65.60;49.70;;;15.80;74.00;;;;;;4912425;28;90424;-46
2023/01/04 02:39:22;;;;;;;65.80;49.50;;;15.80;74.00;;;;;;4905445;28;89940;-48
2023/01/04 02:42:02;;;;;;;64.45;49.50;;;15.80;74.00;;;;;;4900637;28;91559;-52
2023/01/04 02:44:53;;;;;;;64.75;49.42;;;15.80;73.90;;;;;;4919000;28;90356;-53
2023/01/04 02:50:30;;;;;;;64.78;49.33;;;15.70;73.90;;;;;;4901860;28;89899;-51
2023/01/04 02:52:58;;;;;;;65.43;49.42;;;15.70;73.90;;;;;;4903314;28;89975;-49
2023/01/04 02:55:43;;;;;;;66.38;49.60;;;15.70;73.90;;;;;;4901151;28;93329;-50
2023/01/04 02:58:23;;;;;;;64.70;49.72;;;15.70;73.90;;;;;;4906341;28;92291;-53
2023/01/04 03:07:52;;;;;;;65.10;49.53;;;15.70;73.90;;;;;;4907924;28;93740;-50
2023/01/04 03:10:27;;;;;;;64.97;49.70;;;15.70;74.10;;;;;;4909415;28;90081;-53
2023/01/04 03:13:17;;;;;;;66.07;49.40;;;15.70;74.20;;;;;;4906962;28;93456;-54
2023/01/04 03:15:47;;;;;;;64.80;49.15;;;15.70;74.10;;;;;;4910385;28;89268;-48
2023/01/04 03:18:34;;;;;;;64.75;49.40;;;15.70;74.00;;;;;;4902444;28;91036;-51
2023/01/04 03:21:02;;;;;;;64.35;49.03;;;15.70;74.00;;;;;;4923958;28;90037;-49
2023/01/04 03:49:56;;;;;;;64.82;49.00;;;15.70;73.90;;;;;;4913447;28;89710;-54
2023/01/04 03:52:27;;;;;;;64.47;49.35;;;15.70;73.90;;;;;;4916821;28;91830;-52
2023/01/04 03:54:55;;;;;;;65.30;49.25;;;15.70;74.00;;;;;;4909848;28;96328;-49
2023/01/04 03:57:22;;;;;;;64.75;49.17;;;15.70;74.00;;;;;;4894305;28;89865;-52
2023/01/04 04:00:01;;;;;;;64.32;49.30;;;15.60;74.00;;;;;;4912385;28;89951;-54
2023/01/04 04:02:30;;;;;;;64.95;49.55;;;15.60;74.00;;;;;;4911057;28;95280;-51
2023/01/04 04:10:24;;;;;;;64.93;49.33;;;15.70;74.00;;;;;;4895877;28;89865;-52
2023/01/04 04:12:51;;;;;;;65.30;49.15;;;15.70;74.10;;;;;;4907765;28;90419;-51
2023/01/04 04:15:17;;;;;;;64.20;49.05;;;15.60;74.10;;;;;;4901363;28;91392;-52
2023/01/04 04:17:42;;;;;;;64.40;48.95;;;15.60;74.10;;;;;;4904225;28;93150;-53
2023/01/04 04:20:09;;;;;;;65.47;49.63;;;15.60;74.00;;;;;;4896126;28;90429;-51
2023/01/04 04:22:35;;;;;;;64.65;49.33;;;15.70;74.00;;;;;;4898526;28;91911;-51
2023/01/04 04:25:00;;;;;;;64.60;49.28;;;15.70;74.10;;;;;;4917572;28;91639;-53
2023/01/04 04:27:26;;;;;;;64.75;49.17;;;15.60;74.00;;;;;;4899114;28;90118;-53
2023/01/04 04:29:52;;;;;;;65.28;49.30;;;15.60;74.00;;;;;;4912049;28;95255;-49
2023/01/04 04:32:17;;;;;;;65.75;49.60;;;15.60;74.00;;;;;;4908354;28;92404;-46
2023/01/04 04:34:43;;;;;;;64.82;49.45;;;15.60;74.20;;;;;;4906225;28;89906;-50
2023/01/04 04:37:08;;;;;;;64.75;49.20;;;15.60;74.10;;;;;;4908262;28;90093;-50
2023/01/04 04:39:34;;;;;;;65.75;49.85;;;15.60;73.90;;;;;;4902813;28;90292;-50
2023/01/04 04:42:00;;;;;;;65.50;49.42;;;15.60;73.90;;;;;;4895867;28;90876;-51
2023/01/04 04:44:25;;;;;;;65.03;49.10;;;15.60;74.00;;;;;;4905162;28;91123;-48
2023/01/04 04:46:51;;;;;;;64.95;49.42;;;15.60;74.00;;;;;;4900569;28;91427;-53
2023/01/04 04:49:17;;;;;;;64.38;49.20;;;15.60;74.10;;;;;;4899309;28;89817;-51
2023/01/04 04:51:44;;;;;;;64.88;49.30;;;15.60;74.20;;;;;;4904106;28;93770;-51
2023/01/04 04:54:13;;;;;;;64.38;49.30;;;15.60;74.20;;;;;;4903536;28;89878;-48
2023/01/04 04:56:39;;;;;;;63.85;49.13;;;15.60;74.00;;;;;;4897928;28;94249;-53
2023/01/04 04:59:05;;;;;;;66.28;48.83;;;15.60;74.10;;;;;;4903677;28;92125;-49
2023/01/04 05:01:31;;;;;;;64.93;49.60;;;15.60;74.20;;;;;;4904121;28;90837;-49
2023/01/04 05:03:57;;;;;;;64.20;49.42;;;15.60;74.20;;;;;;4907631;28;90311;-52
2023/01/04 05:06:23;;;;;;;64.65;49.25;;;15.60;74.10;;;;;;4905385;28;90984;-54
2023/01/04 05:08:48;;;;;;;64.93;49.28;;;15.60;74.20;;;;;;4902994;28;93833;-48
2023/01/04 05:11:15;;;;;;;64.30;49.05;;;15.60;74.20;;;;;;4898680;28;93102;-52
2023/01/04 05:13:41;;;;;;;65.72;49.42;;;15.60;74.20;;;;;;4904349;28;91502;-48
2023/01/04 05:16:08;;;;;;;64.53;48.88;;;15.60;74.30;;;;;;4895517;28;90149;-50
2023/01/04 05:18:34;;;;;;;63.97;48.90;;;15.60;74.30;;;;;;4909527;28;89646;-53
2023/01/04 05:21:01;;;;;;;65.15;49.35;;;15.60;74.20;;;;;;4916848;28;90387;-49
2023/01/04 05:23:27;;;;;;;66.05;49.42;;;15.60;74.30;;;;;;4900232;28;95020;-51
2023/01/04 05:25:56;;;;;;;64.82;48.78;;;15.60;74.90;;;;;;4906631;28;90218;-49
2023/01/04 05:28:21;;;;;;;64.00;49.00;;;15.50;74.20;;;;;;4909987;28;91657;-50
2023/01/04 05:30:52;;;;;;;65.05;49.08;;;15.50;74.30;;;;;;4894049;28;92566;-49
2023/01/04 05:33:25;;;;;;;68.95;49.20;;;15.50;74.30;;;;;;4893867;28;93322;-52
2023/01/04 05:35:52;;;;;;;64.60;49.05;;;15.60;74.40;;;;;;4904260;28;91127;-52
2023/01/04 05:38:18;;;;;;;64.03;48.97;;;15.60;74.40;;;;;;4906268;28;95412;-50
2023/01/04 05:40:44;;;;;;;65.72;49.10;;;15.60;74.40;;;;;;4895240;28;90887;-49
2023/01/04 05:43:12;;;;;;;64.53;49.17;;;15.60;74.60;;;;;;4894330;28;91109;-52
2023/01/04 05:45:38;;;;;;;66.20;49.40;;;15.60;74.60;;;;;;4903418;28;94396;-50
2023/01/04 05:48:04;;;;;;;64.63;49.15;;;15.60;74.70;;;;;;4916697;28;89458;-50
2023/01/04 05:50:30;;;;;;;66.95;49.50;;;15.60;74.90;;;;;;4905890;28;95634;-52
2023/01/04 05:52:55;;;;;;;66.30;49.30;;;15.60;75.00;;;;;;4909904;28;90534;-51
2023/01/04 05:55:21;;;;;;;67.93;49.70;;;15.60;74.90;;;;;;4913395;28;91124;-50
2023/01/04 05:57:47;;;;;;;64.95;49.25;;;15.60;75.00;;;;;;4906827;28;90095;-50
2023/01/04 06:00:13;;;;;;;66.10;48.92;;;15.60;75.00;;;;;;4904328;28;89567;-50
2023/01/04 06:02:40;;;;;;;64.68;49.42;;;15.60;75.20;;;;;;4906118;28;91297;-50
2023/01/04 06:05:06;;;;;;;64.68;49.17;;;15.60;75.30;;;;;;4914649;28;89851;-51
2023/01/04 06:07:32;;;;;;;65.03;49.15;;;15.60;75.00;;;;;;4906787;28;92471;-49
2023/01/04 06:09:58;;;;;;;64.88;49.08;;;15.70;75.20;;;;;;4911168;28;92850;-49
2023/01/04 06:12:24;;;;;;;65.10;49.25;;;15.80;75.30;;;;;;4908052;28;90878;-52
2023/01/04 06:14:50;;;;;;;63.85;48.78;;;15.80;75.10;;;;;;4915876;28;90002;-47
2023/01/04 06:17:15;;;;;;;64.50;49.10;;;15.70;75.00;;;;;;4920615;28;90026;-50
2023/01/04 06:19:41;;;;;;;69.60;49.30;;;15.70;75.00;;;;;;4909092;28;91085;-50
2023/01/04 06:22:07;;;;;;;65.68;49.25;;;15.80;75.10;;;;;;4911864;28;90956;-49
2023/01/04 06:24:35;;;;;;;64.85;49.67;;;15.80;75.10;;;;;;4912453;28;90447;-50
2023/01/04 06:27:03;;;;;;;64.47;49.28;;;15.80;75.60;;;;;;4901642;28;91615;-47
2023/01/04 06:29:28;;;;;;;65.00;49.45;;;15.80;75.90;;;;;;4909031;28;90169;-51
2023/01/04 06:31:54;;;;;;;72.30;49.38;;;15.80;76.20;;;;;;4897886;28;90982;-46
2023/01/04 06:34:20;;;;;;;64.88;49.45;;;15.80;76.50;;;;;;4903274;28;91730;-49
2023/01/04 06:36:45;;;;;;;64.93;49.30;;;15.80;76.80;;;;;;4901602;28;91094;-49
2023/01/04 06:39:11;;;;;;;65.35;49.38;;;15.90;76.50;;;;;;4906506;28;91359;-48
2023/01/04 06:41:37;;;;;;;65.28;49.30;;;15.90;76.00;;;;;;4912435;28;89927;-49
2023/01/04 06:44:03;;;;;;;67.00;48.95;;;15.80;76.20;;;;;;4905783;28;92159;-47
2023/01/04 06:46:28;;;;;;;65.63;49.60;;;15.80;76.50;;;;;;4905108;28;89727;-48
2023/01/04 06:48:54;;;;;;;66.85;49.90;;;15.80;76.30;;;;;;4903834;28;91396;-49
2023/01/04 06:51:20;;;;;;;67.30;49.53;;;15.80;76.00;;;;;;4914196;28;89708;-47
2023/01/04 06:53:46;;;;;;;65.95;49.33;;;15.80;76.00;;;;;;4896788;28;91531;-50
2023/01/04 06:56:12;;;;;;;66.75;49.20;;;15.80;76.10;;;;;;4909926;28;90161;-46
2023/01/04 06:58:37;;;;;;;65.32;49.45;;;15.80;76.00;;;;;;4908265;28;90627;-49
2023/01/04 07:01:03;;;;;;;66.60;49.22;;;15.80;76.30;;;;;;4928682;28;89827;-50
2023/01/04 07:03:29;;;;;;;66.45;49.63;;;15.90;76.40;;;;;;4903532;28;91167;-50
2023/01/04 07:05:55;;;;;;;66.25;49.90;;;15.90;76.40;;;;;;4910918;28;91346;-47
2023/01/04 07:08:20;;;;;;;66.90;49.55;;;15.90;76.40;;;;;;4909836;28;91121;-48
2023/01/04 07:10:46;;;;;;;66.05;49.90;;;15.90;76.40;;;;;;4904233;28;92017;-51
2023/01/04 07:13:12;;;;;;;65.97;49.45;;;15.90;76.50;;;;;;4920239;28;91837;-50
2023/01/04 07:15:38;;;;;;;65.72;49.35;;;15.90;76.40;;;;;;4905298;28;90453;-49
2023/01/04 07:18:03;;;;;;;66.38;49.38;;;15.90;76.20;;;;;;4918565;28;92097;-52
2023/01/04 07:20:29;;;;;;;66.88;49.53;;;15.90;76.30;;;;;;4906207;28;89863;-50
2023/01/04 07:22:55;;;;;;;66.07;49.40;;;15.90;76.40;;;;;;4904404;28;94190;-46
2023/01/04 07:25:21;;;;;;;66.43;49.22;;;16.00;76.20;;;;;;4898710;28;90914;-48
2023/01/04 07:27:51;;;;;;;66.07;49.40;;;16.00;76.10;;;;;;4905554;28;93662;-49
2023/01/04 07:30:17;;;;;;;65.50;49.03;;;15.90;76.00;;;;;;4909891;28;90169;-45
2023/01/04 07:32:43;;;;;;;65.95;49.22;;;16.00;76.00;;;;;;4902543;28;90405;-47
2023/01/04 07:35:08;;;;;;;65.97;49.42;;;16.00;75.80;;;;;;4910873;28;89843;-50
2023/01/04 07:37:34;;;;;;;65.90;49.80;;;16.00;75.90;;;;;;4909723;28;90918;-46
2023/01/04 07:39:59;;;;;;;66.47;49.38;;;16.00;75.70;;;;;;4900424;28;93467;-48
2023/01/04 07:42:25;;;;;;;65.60;49.38;;;15.90;75.60;;;;;;4902935;28;92432;-49
2023/01/04 07:44:51;;;;;;;65.90;49.47;;;16.00;75.70;;;;;;4915947;28;90150;-45
2023/01/04 07:47:16;;;;;;;65.88;49.45;;;16.00;76.00;;;;;;4901480;28;92496;-46
2023/01/04 07:49:42;;;;;;;66.35;50.25;;;15.90;76.00;;;;;;4907361;28;92610;-45
2023/01/04 07:52:07;;;;;;;66.65;49.35;;;16.00;76.20;;;;;;4915134;28;91104;-49
2023/01/04 07:54:33;;;;;;;66.93;49.95;;;16.00;76.10;;;;;;4906007;28;94945;-46
2023/01/04 07:56:59;;;;;;;72.82;49.95;;;16.00;76.30;;;;;;4907684;28;92139;-49
2023/01/04 07:59:24;;;;;;;66.00;49.78;;;16.00;76.20;;;;;;4906333;28;89880;-48
2023/01/04 08:01:50;;;;;;;67.65;49.20;;;16.00;76.20;;;;;;4917941;28;91208;-49
2023/01/04 08:04:17;;;;;;;66.82;49.47;;;16.00;76.10;;;;;;4908805;28;90233;-46
2023/01/04 08:06:45;;;;;;;66.03;49.53;;;16.00;76.20;;;;;;4905445;28;89991;-46
2023/01/04 08:09:11;;;;;;;66.40;49.45;;;16.00;76.20;;;;;;4921218;28;89870;-49
2023/01/04 08:11:37;;;;;;;67.70;49.55;;;16.00;76.00;;;;;;4912210;28;90515;-53
2023/01/04 08:14:03;;;;;;;68.43;49.35;;;16.00;75.70;;;;;;4917250;28;89793;-50
2023/01/04 08:16:32;;;;;;;66.40;49.58;;;16.10;75.70;;;;;;4910292;28;89762;-51
2023/01/04 08:19:01;;;;;;;71.07;50.05;;;16.20;75.70;;;;;;4899284;28;89956;-50
2023/01/04 08:21:29;;;;;;;69.53;49.85;;;16.20;75.30;;;;;;4909928;28;91202;-48
2023/01/04 08:23:54;;;;;;;66.63;49.55;;;16.20;75.30;;;;;;4904231;28;89832;-51
2023/01/04 08:26:20;;;;;;;67.68;49.78;;;16.20;74.90;;;;;;4899243;28;90259;-50
2023/01/04 08:28:47;;;;;;;67.35;49.58;;;16.20;75.20;;;;;;4909244;28;98614;-50
2023/01/04 08:31:19;;;;;;;67.60;49.65;;;16.20;75.10;;;;;;4907014;28;89979;-53
2023/01/04 08:33:45;;;;;;;68.85;49.72;;;16.20;74.90;;;;;;4908959;28;89597;-53
2023/01/04 08:36:15;;;;;;;66.95;49.83;;;16.20;75.00;;;;;;4905884;28;93944;-48
2023/01/04 08:38:41;;;;;;;68.32;49.80;;;16.10;74.70;;;;;;4922708;28;93692;-48
2023/01/04 08:41:07;;;;;;;66.38;49.75;;;16.20;74.60;;;;;;4904798;28;90324;-51
2023/01/04 08:43:32;;;;;;;66.93;49.75;;;16.20;74.70;;;;;;4908158;28;92043;-48
2023/01/04 08:45:58;;;;;;;67.50;49.95;;;16.20;74.60;;;;;;4910810;28;91558;-53
2023/01/04 08:48:24;;;;;;;68.38;49.88;;;16.20;74.60;;;;;;4907075;28;90255;-53
2023/01/04 08:50:49;;;;;;;68.18;49.90;;;16.20;74.40;;;;;;4904015;28;89893;-51
2023/01/04 08:53:15;;;;;;;66.80;49.55;;;16.20;74.40;;;;;;4907042;28;93032;-47
2023/01/04 08:55:48;;;;;;;68.22;50.00;;;16.20;74.40;;;;;;4908793;28;91282;-48
2023/01/04 08:58:14;;;;;;;67.38;49.83;;;16.20;74.50;;;;;;4913707;28;90234;-48
2023/01/04 09:00:40;;;;;;;67.72;50.03;;;16.20;74.40;;;;;;4908886;28;90521;-49
2023/01/04 09:03:05;;;;;;;66.75;49.70;;;16.20;74.30;;;;;;4915300;28;89407;-48
2023/01/04 09:05:31;;;;;;;67.70;50.00;;;16.20;74.30;;;;;;4916216;28;90425;-49
2023/01/04 09:07:59;;;;;;;67.70;49.70;;;16.20;74.30;;;;;;4908340;28;91539;-51
2023/01/04 09:10:25;;;;;;;67.10;50.08;;;16.20;74.00;;;;;;4912617;28;91435;-52
2023/01/04 09:12:50;;;;;;;67.28;49.85;;;16.20;74.30;;;;;;4905158;28;93928;-45
2023/01/04 09:15:17;;;;;;;68.10;49.70;;;16.20;74.50;;;;;;4906983;28;92228;-52
2023/01/04 09:17:43;;;;;;;67.82;49.83;;;16.20;74.30;;;;;;4905192;28;90107;-49
2023/01/04 09:20:09;;;;;;;68.63;49.90;;;16.20;74.20;;;;;;4910999;28;91236;-49
2023/01/04 09:22:35;;;;;;;68.93;49.78;;;16.20;74.30;;;;;;4906111;28;90894;-50
2023/01/04 09:25:00;;;;;;;67.10;49.63;;;16.20;74.20;;;;;;4910269;28;90602;-50
2023/01/04 09:27:26;;;;;;;66.68;49.80;;;16.20;74.00;;;;;;4891062;28;90038;-52
2023/01/04 09:29:52;;;;;;;66.97;49.60;;;16.20;74.20;;;;;;4905989;28;89765;-50
2023/01/04 09:32:18;;;;;;;67.60;49.92;;;16.20;74.20;;;;;;4915487;28;92594;-52
2023/01/04 09:34:44;;;;;;;67.65;49.78;;;16.20;74.30;;;;;;4904111;28;93637;-48
2023/01/04 09:37:10;;;;;;;67.85;49.83;;;16.20;74.10;;;;;;4907227;28;92454;-52
2023/01/04 09:39:35;;;;;;;68.38;49.75;;;16.20;74.40;;;;;;4901084;28;90455;-48
2023/01/04 09:42:05;;;;;;;67.13;49.70;;;16.20;74.00;;;;;;4912102;28;89953;-48
2023/01/04 09:44:55;;;;;;;68.00;49.88;;;16.20;74.20;;;;;;4905831;28;90664;-49
2023/01/04 09:47:50;;;;;;;66.75;49.67;;;16.20;74.10;;;;;;4910129;28;90051;-48
2023/01/04 09:50:27;;;;;;;68.40;49.88;;;16.20;74.10;;;;;;4908433;28;89954;-52
2023/01/04 09:53:10;;;;;;;67.53;49.95;;;16.20;73.90;;;;;;4900680;28;91566;-51
2023/01/04 09:55:39;;;;;;;67.65;50.03;;;16.20;73.90;;;;;;4906136;28;90792;-52
2023/01/04 09:58:46;;;;;;;67.22;49.95;;;16.20;74.10;;;;;;4894121;28;90092;-51
2023/01/04 10:01:22;;;;;;;68.40;49.65;;;16.20;74.30;;;;;;4902562;28;92100;-46
2023/01/04 10:04:00;;;;;;;67.95;49.58;;;16.30;74.00;;;;;;4903508;28;91788;-51
2023/01/04 10:06:26;;;;;;;67.97;50.15;;;16.30;73.80;;;;;;4908837;28;89856;-50
2023/01/04 10:08:56;;;;;;;67.68;49.88;;;16.30;73.90;;;;;;4909294;28;90876;-50
2023/01/04 10:11:29;;;;;;;67.22;49.97;;;16.30;73.90;;;;;;4907135;28;91110;-53
2023/01/04 10:14:03;;;;;;;67.43;49.80;;;16.20;73.90;;;;;;4902963;28;90400;-52
2023/01/04 10:17:00;;;;;;;67.78;49.47;;;16.20;73.70;;;;;;4903469;28;90199;-51
2023/01/04 10:19:51;;;;;;;67.28;49.95;;;16.30;73.90;;;;;;4875549;28;90176;-51
2023/01/04 10:22:37;;;;;;;67.65;50.03;;;16.20;73.80;;;;;;4898230;28;89790;-46
2023/01/04 10:25:20;;;;;;;68.07;50.10;;;16.30;73.90;;;;;;4896908;28;92825;-47
2023/01/04 10:28:05;;;;;;;67.25;49.67;;;16.20;73.80;;;;;;4899774;28;91569;-53
2023/01/04 10:30:50;;;;;;;67.03;49.88;;;16.30;73.90;;;;;;4902510;28;90705;-47
2023/01/04 10:33:45;;;;;;;67.10;49.80;;;16.30;74.10;;;;;;4905456;28;91839;-51
2023/01/04 10:36:24;;;;;;;68.32;49.88;;;16.30;73.90;;;;;;4906357;28;91646;-45
2023/01/04 10:39:03;;;;;;;68.25;49.67;;;16.30;73.90;;;;;;4901285;28;92277;-47
2023/01/04 10:41:35;;;;;;;67.47;49.58;;;16.30;73.90;;;;;;4902767;28;94035;-49
2023/01/04 10:44:19;;;;;;;67.55;50.13;;;16.20;73.80;;;;;;4902089;28;91878;-47
2023/01/04 10:47:02;;;;;;;66.82;49.45;;;16.30;73.90;;;;;;4906167;28;89691;-46
2023/01/04 10:49:43;;;;;;;67.32;49.80;;;16.30;73.70;;;;;;4901035;28;94669;-48
2023/01/04 10:52:39;;;;;;;68.03;49.90;;;16.30;73.70;;;;;;4904614;28;91736;-47
2023/01/04 10:55:52;;;;;;;66.90;49.40;;;16.30;73.70;;;;;;4908586;28;90942;-45
2023/01/04 10:58:33;;;;;;;68.18;49.97;;;16.30;74.00;;;;;;4899239;28;90594;-48
2023/01/04 11:01:17;;;;;;;67.25;49.47;;;16.20;73.90;;;;;;4914740;28;90244;-49
2023/01/04 11:03:52;;;;;;;67.40;49.80;;;16.30;73.90;;;;;;4917899;28;91668;-50
2023/01/04 11:06:22;;;;;;;68.32;50.03;;;16.30;74.00;;;;;;4913045;28;93106;-48
2023/01/04 11:09:02;;;;;;;67.50;49.97;;;16.30;73.90;;;;;;4904313;28;90913;-49
2023/01/04 11:11:40;;;;;;;67.55;49.92;;;16.30;74.00;;;;;;4907730;28;90159;-45
2023/01/04 11:14:06;;;;;;;67.97;49.88;;;16.30;74.40;;;;;;4905783;28;90887;-48
2023/01/04 11:16:32;;;;;;;70.20;50.42;;;16.30;74.00;;;;;;4910895;28;89970;-47
2023/01/04 11:18:58;;;;;;;66.95;49.63;;;16.30;73.90;;;;;;4901038;28;90772;-55
2023/01/04 11:21:33;;;;;;;67.88;49.92;;;16.30;73.90;;;;;;4905116;28;91530;-50
2023/01/04 11:24:02;;;;;;;68.05;49.83;;;16.30;73.90;;;;;;4909021;28;90769;-47
2023/01/04 11:26:40;;;;;;;68.18;50.20;;;16.30;74.00;;;;;;4912555;28;89915;-50
2023/01/04 11:29:24;;;;;;;68.35;50.05;;;16.30;74.20;;;;;;4907579;28;91010;-50
2023/01/04 11:32:08;;;;;;;67.78;49.97;;;16.30;74.20;;;;;;4904831;28;90820;-47
2023/01/04 11:34:49;;;;;;;67.80;49.85;;;16.30;74.20;;;;;;4899822;28;89814;-48
2023/01/04 11:37:25;;;;;;;70.18;49.97;;;16.30;74.30;;;;;;4897639;28;95848;-52
2023/01/04 11:39:51;;;;;;;68.35;50.13;;;16.30;74.30;;;;;;4900402;28;91387;-49
2023/01/04 11:42:20;;;;;;;67.82;49.83;;;16.30;74.50;;;;;;4903382;28;91204;-53
2023/01/04 11:44:58;;;;;;;67.13;49.85;;;16.30;74.40;;;;;;4912091;28;90599;-53
2023/01/04 11:47:24;;;;;;;66.90;49.60;;;16.30;74.30;;;;;;4912984;28;91139;-49
2023/01/04 11:49:50;;;;;;;66.95;49.65;;;16.30;74.40;;;;;;4905111;28;94866;-48
2023/01/04 11:52:30;;;;;;;67.95;50.28;;;16.30;74.40;;;;;;4904212;28;91227;-52
2023/01/04 11:55:14;;;;;;;68.68;49.85;;;16.30;74.40;;;;;;4912956;28;91642;-50
2023/01/04 11:57:40;;;;;;;67.10;49.90;;;16.30;74.50;;;;;;4907727;28;93116;-52
2023/01/04 12:00:16;;;;;;;66.80;49.70;;;16.30;74.90;;;;;;4914505;28;90436;-53
2023/01/04 12:02:42;;;;;;;67.97;49.90;;;16.30;74.20;;;;;;4906511;28;92870;-49
2023/01/04 12:05:20;;;;;;;67.65;49.80;;;16.30;74.30;;;;;;4906925;28;89830;-50
2023/01/04 12:07:46;;;;;;;68.28;49.85;;;16.30;74.50;;;;;;4904339;28;90907;-50
2023/01/04 12:10:25;;;;;;;66.78;49.60;;;16.30;74.70;;;;;;4909217;28;91995;-47
2023/01/04 12:12:51;;;;;;;67.90;49.90;;;16.30;74.40;;;;;;4905813;28;94967;-52
2023/01/04 12:15:24;;;;;;;68.43;50.13;;;16.30;75.00;;;;;;4897259;28;93864;-50
2023/01/04 12:18:16;;;;;;;67.78;50.03;;;16.40;74.60;;;;;;4894118;28;90372;-53
2023/01/04 12:20:42;;;;;;;66.88;49.80;;;16.40;74.80;;;;;;4903382;28;91743;-55
2023/01/04 12:23:10;;;;;;;67.55;49.70;;;16.30;74.60;;;;;;4904531;28;92738;-53
2023/01/04 12:25:44;;;;;;;67.13;49.85;;;16.30;74.80;;;;;;4910344;28;90165;-54
2023/01/04 12:28:39;;;;;;;68.32;49.85;;;16.30;75.40;;;;;;4907505;28;91705;-53
2023/01/04 12:31:20;;;;;;;68.72;50.03;;;16.30;74.80;;;;;;4911633;28;89668;-50
2023/01/04 12:33:49;;;;;;;67.17;49.77;;;16.30;74.80;;;;;;4907203;28;92372;-48
2023/01/04 12:36:20;;;;;;;67.18;50.03;;;16.30;74.60;;;;;;4911000;28;90090;-50
2023/01/04 12:38:51;;;;;;;67.63;49.65;;;16.30;75.90;;;;;;4904567;28;93207;-48
2023/01/04 12:41:18;;;;;;;66.47;49.53;;;16.30;75.00;;;;;;4905632;28;90519;-51
2023/01/04 12:43:46;;;;;;;67.55;49.67;;;16.30;75.20;;;;;;4914460;28;90387;-47
2023/01/04 12:49:27;;;;;;;68.07;49.53;;;16.20;75.50;;;;;;4906524;28;90850;-52
2023/01/04 12:52:08;;;;;;;67.00;49.88;;;16.30;75.30;;;;;;4916117;28;93517;-51
2023/01/04 12:54:48;;;;;;;66.93;49.67;;;16.20;75.40;;;;;;4910316;28;92852;-51
2023/01/04 12:57:17;;;;;;;67.23;49.93;;;16.20;76.30;;;;;;4897926;28;91019;-50
2023/01/04 12:59:58;;;;;;;67.07;49.90;;;16.20;75.50;;;;;;4905717;28;91692;-51
2023/01/04 13:02:31;;;;;;;66.80;49.45;;;16.20;75.70;;;;;;4900012;28;89598;-49
2023/01/04 13:04:59;;;;;;;67.05;49.90;;;16.20;75.80;;;;;;4909658;28;93337;-58
2023/01/04 13:07:30;;;;;;;67.20;49.83;;;16.20;75.90;;;;;;4907869;28;91358;-52
2023/01/04 13:09:58;;;;;;;66.80;49.60;;;16.10;75.80;;;;;;4900235;28;95270;-51
2023/01/04 13:12:45;;;;;;;67.20;49.70;;;16.20;75.90;;;;;;4898490;28;90420;-48
2023/01/04 13:15:21;;;;;;;67.20;49.88;;;16.20;75.90;;;;;;4904463;28;90120;-48
2023/01/04 13:17:47;;;;;;;66.85;49.65;;;16.20;75.50;;;;;;4907737;28;93308;-53
2023/01/04 13:20:24;;;;;;;67.40;49.78;;;16.20;75.70;;;;;;4901022;28;90742;-59
2023/01/04 13:22:55;;;;;;;67.72;49.72;;;16.20;75.90;;;;;;4908362;28;89278;-52
2023/01/04 13:25:25;;;;;;;67.43;49.80;;;16.20;76.20;;;;;;4904139;28;90893;-49
2023/01/04 13:28:15;;;;;;;68.30;49.92;;;16.30;75.30;;;;;;4906694;28;89551;-52
2023/01/04 13:30:41;;;;;;;67.35;49.90;;;16.30;75.10;;;;;;4903231;28;90489;-55